• Join FlightAware (Why Join?)
  • Login
  • US Flag 
12:49PM EDT


 

Airport Tracker/Info


-or-


 

Live Flight TrackerFlight Track Log ✈ OPT732 ✈ 08-May-2013 ✈ KSJC - KPGA

Flight Track Log - Related Links

Times and Time Zones

All times are in EDT time to prevent confusion due to time zone crossing. See the OPT732 flight status page for this flight to view local times or setup timezone preferences in your user account.

Time Position Orientation Groundspeed Altitude Reporting Facility
EDT Latitude Longitude Course Direction KTS MPH feet Rate Location/Type
01:00PM 37.4333 -121.9833 63° Northeast 234 269 4,800  Level Northern Cal TRACON
01:01PM 37.4333 -121.9000 90° East 248 285 5,100 780 Climbing Northern Cal TRACON
01:03PM 37.3675 -121.8311 140° Southeast 241 277 6,700 1,920 Climbing Oakland Center
01:04PM 37.3167 -121.7836 143° Southeast 264 304 9,700 3,240 Climbing Oakland Center
01:05PM 37.8294 -121.8364 76° East  Level FlightAware Approximate
01:05PM 37.2806 -121.8592 239° Southwest 278 320 13,400  Level Oakland Center
01:06PM 37.8672 -121.6987 63° Northeast  Level FlightAware Approximate
01:06PM 37.3392 -121.9150 323° Northwest 270 311 16,100  Level Oakland Center
01:07PM 37.4150 -121.9489 340° North 296 341 18,200 1,680 Climbing Oakland Center
01:08PM 37.5067 -121.9575 356° North 332 382 19,600 1,500 Climbing Oakland Center
01:09PM 37.6078 -121.9683 355° North 363 418 21,300 1,860 Climbing Oakland Center
01:10PM 37.7375 -121.9742 358° North 391 450 23,500 1,920 Climbing Oakland Center
01:11PM 37.8278 -121.8914 36° Northeast 413 475 25,300 1,860 Climbing Oakland Center
01:12PM 37.8608 -121.7478 74° East 431 496 27,400 2,160 Climbing Oakland Center
01:13PM 37.8858 -121.5997 78° East 431 496 29,800 2,400 Climbing Oakland Center
01:14PM 37.9119 -121.4367 78° East 431 496 32,400 2,340 Climbing Oakland Center
01:15PM 37.9358 -121.2897 78° East 430 495 34,600 1,800 Climbing Oakland Center
01:16PM 37.9594 -121.1414 79° East 433 498 36,200 1,320 Climbing Oakland Center
01:17PM 37.9850 -120.9869 78° East 448 516 37,300 1,020 Climbing Oakland Center
01:18PM 38.0111 -120.8256 78° East 466 536 38,300 960 Climbing Oakland Center
01:19PM 38.0372 -120.6611 79° East 477 549 39,300 900 Climbing Oakland Center
01:20PM 38.0639 -120.4950 78° East 483 556 40,200 1,020 Climbing Oakland Center
01:21PM 38.0942 -120.2933 79° East 485 558 41,400 1,020 Climbing Oakland Center
01:22PM 38.1203 -120.1278 79° East 482 555 42,400 900 Climbing Oakland Center
01:23PM 38.1489 -119.9647 77° East 477 549 43,300 660 Climbing Oakland Center
01:24PM 38.1717 -119.8014 80° East 473 544 43,800 480 Climbing Oakland Center
01:25PM 38.1956 -119.6392 79° East 471 542 44,400 480 Climbing Oakland Center
01:26PM 38.2192 -119.4778 79° East 467 537 44,900 240 Climbing Oakland Center
01:27PM 38.2444 -119.3017 80° East 469 540 45,000  Climbing Oakland Center
01:28PM 38.2686 -119.1369 79° East 474 545 45,000  Level Oakland Center
01:29PM 38.2925 -118.9703 80° East 480 552 45,000  Level Oakland Center
01:30PM 38.3169 -118.8022 79° East 484 557 45,000  Level Oakland Center
01:31PM 38.3406 -118.6317 80° East 490 564 45,000  Level Oakland Center
01:32PM 38.3647 -118.4619 80° East 490 564 45,000  Level Oakland Center
01:33PM 38.3925 -118.2561 80° East 492 566 45,000  Level Oakland Center
01:34PM 38.4161 -118.0872 80° East 494 568 45,000  Level Oakland Center
01:35PM 38.4394 -117.9136 80° East 494 568 45,000  Level Oakland Center
01:36PM 38.4617 -117.7389 81° East 497 572 45,000  Level Oakland Center
01:38PM 38.4847 -117.5636 80° East 496 571 45,000  Level Oakland Center
01:39PM 38.5072 -117.3903 81° East 493 567 45,000  Level Oakland Center
01:39PM 38.5167 -117.2536 85° East 484 557 45,000  Level Salt Lake Center
01:40PM 38.5033 -117.0856 96° East 471 542 45,000  Level Salt Lake Center
01:41PM 38.5006 -117.0525 96° East 470 541 45,000  Level Oakland Center
01:42PM 38.4861 -116.8822 96° East 476 548 45,000  Level Oakland Center
01:43PM 38.4717 -116.7111 96° East 480 552 45,000  Level Oakland Center
01:43PM 38.4597 -116.5728 96° East 486 559 45,000  Level Salt Lake Center
01:44PM 38.4442 -116.3989 96° East 491 565 45,000  Level Salt Lake Center
01:45PM 38.4408 -116.3631 97° East 493 567 45,000  Level Oakland Center
01:46PM 38.4219 -116.1525 96° East 497 572 45,000  Level Oakland Center
01:46PM 38.4133 -116.0481 96° East 496 571 45,000  Level Salt Lake Center
01:47PM 38.3964 -115.8717 97° East 500 575 45,000  Level Salt Lake Center
01:49PM 38.3764 -115.6600 97° East 501 577 45,000  Level Salt Lake Center
01:50PM 38.3600 -115.4836 97° East 502 578 45,000  Level Salt Lake Center
01:51PM 38.3417 -115.2950 97° East 502 578 45,000  Level Salt Lake Center
01:52PM 38.3247 -115.1175 97° East 506 582 45,000  Level Salt Lake Center
01:53PM 38.3058 -114.9425 98° East 502 578 45,000  Level Salt Lake Center
01:54PM 38.2886 -114.7650 97° East 505 581 45,000  Level Salt Lake Center
01:55PM 38.2700 -114.5881 98° East 506 582 45,000 -540 Level Salt Lake Center
01:56PM 38.2500 -114.4108 98° East 508 585 43,900 -1,320 Descending Salt Lake Center
01:57PM 38.1853 -114.2061 112° Southeast 520 598 42,300 -1,440 Descending Salt Lake Center
01:58PM 38.1275 -114.0386 114° Southeast 519 597 41,000 -1,260 Descending Salt Lake Center
01:59PM 38.0706 -113.8756 114° Southeast 507 583 39,700 -1,380 Descending Salt Lake Center
02:00PM 38.0147 -113.7128 113° Southeast 504 580 38,200 -1,680 Descending Salt Lake Center
02:01PM 37.9567 -113.5497 114° Southeast 507 583 36,300 -1,560 Descending Salt Lake Center
02:02PM 37.8992 -113.3839 114° Southeast 513 590 35,000 -660 Descending Salt Lake Center
02:03PM 37.8406 -113.2197 114° Southeast 512 589 35,000 -60 Level Salt Lake Center
02:04PM 37.7667 -113.0292 116° Southeast 502 578 34,900 -1,200 Descending Salt Lake Center
02:05PM 37.6886 -112.8808 124° Southeast 501 577 32,600 -3,300 Descending Salt Lake Center
02:06PM 37.6103 -112.7292 123° Southeast 495 570 28,100 -3,840 Descending Salt Lake Center
02:07PM 37.5389 -112.5961 124° Southeast 468 539 24,700 -2,040 Descending Salt Lake Center
02:08PM 37.4736 -112.4756 124° Southeast 430 495 24,000 -360 Descending Salt Lake Center
02:09PM 37.4078 -112.3514 124° Southeast 424 488 24,000 -540 Level Salt Lake Center
02:10PM 37.3389 -112.2217 124° Southeast 437 503 23,000 -1,500 Descending Salt Lake Center
02:11PM 37.2689 -112.0922 124° Southeast 446 513 21,000 -2,280 Descending Salt Lake Center
02:12PM 37.1717 -111.9142 124° Southeast 440 506 17,900 -2,280 Descending Los Angeles Center
02:14PM 37.1072 -111.7953 124° Southeast 418 481 15,900 -2,400 Descending Los Angeles Center
02:15PM 37.0458 -111.6836 125° Southeast 406 467 13,000 -2,700 Descending Los Angeles Center
02:15PM 37.0025 -111.6008 123° Southeast 384 442 10,700 -2,100 Descending Denver Center
02:16PM 36.9561 -111.5011 120° Southeast 303 349 9,000 -1,860 Descending Denver Center
02:18PM 36.9325 -111.4264 112° Southeast 260 299 6,900 -1,800 Descending Denver Center
02:19PM 36.8889 -111.4150 168° South 213 245 5,400 -1,500 Descending Denver Center